createdAt,value
2022-12-18T04:02:29.821Z,16.57
2022-12-18T04:05:04.543Z,15.10
2022-12-18T04:07:34.616Z,16.60
2022-12-18T04:10:05.418Z,16.33
2022-12-18T04:12:33.617Z,16.70
2022-12-18T04:15:02.194Z,16.87
2022-12-18T04:17:31.374Z,16.57
2022-12-18T04:19:59.617Z,16.63
2022-12-18T04:22:27.517Z,15.80
2022-12-18T04:25:00.200Z,15.97
2022-12-18T04:27:36.517Z,17.03
2022-12-18T04:30:07.513Z,17.57
2022-12-18T04:32:37.054Z,15.43
2022-12-18T04:35:07.605Z,16.03
2022-12-18T04:37:36.385Z,15.43
2022-12-18T04:40:04.794Z,14.83
2022-12-18T04:42:41.668Z,16.10
2022-12-18T04:45:10.762Z,16.37
2022-12-18T04:47:40.044Z,16.30
2022-12-18T04:50:08.749Z,14.37
2022-12-18T04:52:37.225Z,14.80
2022-12-18T04:55:05.417Z,14.40
2022-12-18T04:57:33.262Z,14.17
2022-12-18T05:00:01.478Z,15.57
2022-12-18T05:02:29.396Z,14.93
2022-12-18T05:04:58.640Z,14.67
2022-12-18T05:07:26.999Z,15.17
2022-12-18T05:09:54.837Z,15.27
2022-12-18T05:12:22.706Z,15.97
2022-12-18T05:14:50.525Z,15.37
2022-12-18T05:17:18.437Z,17.07
2022-12-18T05:19:46.298Z,16.23
2022-12-18T05:22:15.484Z,16.57
2022-12-18T05:24:43.341Z,17.20
2022-12-18T05:27:11.206Z,17.27
2022-12-18T05:29:39.046Z,17.27
2022-12-18T05:32:06.892Z,16.60
2022-12-18T05:34:35.034Z,17.87
2022-12-18T05:37:02.879Z,16.70
2022-12-18T05:39:32.091Z,16.90
2022-12-18T05:41:59.952Z,16.20
2022-12-18T05:44:27.894Z,17.10
2022-12-18T05:46:56.136Z,16.47
2022-12-18T05:49:24.013Z,15.13
2022-12-18T05:51:51.852Z,14.90
2022-12-18T05:54:19.696Z,15.27
2022-12-18T05:56:48.929Z,17.07
2022-12-18T05:59:17.040Z,15.23
2022-12-18T06:01:45.087Z,15.50
2022-12-18T06:04:13.072Z,14.67
2022-12-18T06:06:41.105Z,15.83
2022-12-18T06:09:10.450Z,15.70
2022-12-18T06:11:39.299Z,16.93
2022-12-18T06:14:08.824Z,17.13
2022-12-18T06:16:36.755Z,17.83
2022-12-18T06:19:06.665Z,18.13
2022-12-18T06:21:35.543Z,18.77
2022-12-18T06:24:04.237Z,19.50
2022-12-18T06:26:32.052Z,17.90
2022-12-18T06:28:59.898Z,18.40
2022-12-18T06:31:29.177Z,19.53
2022-12-18T06:33:57.479Z,18.33
2022-12-18T06:36:25.452Z,19.17
2022-12-18T06:38:53.299Z,19.47
2022-12-18T06:41:22.841Z,19.37
2022-12-18T06:43:50.696Z,18.63
2022-12-18T06:46:18.682Z,19.00
2022-12-18T06:48:50.881Z,17.00
2022-12-18T06:51:22.950Z,16.17
2022-12-18T06:53:50.984Z,17.60
2022-12-18T06:56:18.870Z,16.67
2022-12-18T06:58:46.739Z,17.97
2022-12-18T07:01:15.615Z,17.70
2022-12-18T07:03:44.821Z,16.27
2022-12-18T07:06:19.684Z,16.17
2022-12-18T07:08:47.877Z,16.47
2022-12-18T07:11:16.146Z,16.53
2022-12-18T07:13:44.207Z,16.30
2022-12-18T07:16:20.873Z,17.30
2022-12-18T07:18:50.482Z,17.53
2022-12-18T07:21:21.553Z,15.97
2022-12-18T07:23:49.703Z,15.20
2022-12-18T07:26:19.582Z,17.47
2022-12-18T07:28:47.786Z,17.90
2022-12-18T07:31:17.779Z,18.87
2022-12-18T07:33:47.780Z,18.30
2022-12-18T07:36:16.384Z,17.47
2022-12-18T07:38:48.440Z,17.03
2022-12-18T07:41:16.281Z,16.53
2022-12-18T07:43:44.503Z,15.43
2022-12-18T07:46:14.626Z,15.90
2022-12-18T07:48:42.853Z,16.67
2022-12-18T07:51:12.100Z,16.63
2022-12-18T07:53:40.402Z,16.90
2022-12-18T07:56:28.987Z,16.83
2022-12-18T07:58:58.335Z,15.97
2022-12-18T08:01:26.589Z,16.50
2022-12-18T08:03:54.570Z,16.13
2022-12-18T08:06:24.130Z,20.25
2022-12-18T08:08:53.654Z,22.15
2022-12-18T08:11:23.617Z,18.70
2022-12-18T08:13:51.748Z,19.37
2022-12-18T08:16:20.226Z,18.33
2022-12-18T08:18:48.649Z,17.63
2022-12-18T08:21:20.622Z,21.43
2022-12-18T08:23:49.799Z,20.00
2022-12-18T08:26:20.075Z,18.97
2022-12-18T08:28:50.790Z,18.40
2022-12-18T08:31:19.406Z,18.57
2022-12-18T08:33:47.490Z,19.07
2022-12-18T08:36:15.355Z,21.80
2022-12-18T08:38:43.233Z,20.53
2022-12-18T08:41:15.618Z,19.47
2022-12-18T08:44:01.470Z,20.73
2022-12-18T08:46:36.375Z,19.10
2022-12-18T08:49:04.702Z,18.43
2022-12-18T08:51:32.633Z,18.37
2022-12-18T08:54:00.498Z,18.53
2022-12-18T08:56:28.338Z,18.77
2022-12-18T08:58:56.652Z,19.40
2022-12-18T09:01:25.115Z,17.27
2022-12-18T09:03:54.499Z,18.00
2022-12-18T09:06:23.818Z,19.53
2022-12-18T09:08:51.950Z,20.83
2022-12-18T09:11:23.432Z,19.03
2022-12-18T09:13:51.892Z,18.60
2022-12-18T09:16:20.725Z,19.37
2022-12-18T09:18:48.939Z,18.50
2022-12-18T09:21:20.828Z,19.37
2022-12-18T09:23:52.235Z,20.40
2022-12-18T09:26:20.200Z,18.87
2022-12-18T09:28:48.196Z,18.37
2022-12-18T09:31:16.134Z,18.97
2022-12-18T09:33:44.033Z,19.03
2022-12-18T09:36:13.949Z,18.50
2022-12-18T09:38:43.731Z,19.93
2022-12-18T09:41:25.516Z,21.70
2022-12-18T09:43:56.397Z,20.53
2022-12-18T09:46:29.995Z,22.53
2022-12-18T09:49:02.147Z,17.50
2022-12-18T09:51:36.163Z,16.63
2022-12-18T09:54:08.573Z,15.33
2022-12-18T09:56:39.437Z,16.03
2022-12-18T09:59:07.554Z,16.23
2022-12-18T10:01:43.087Z,15.90
2022-12-18T10:04:12.165Z,15.77
2022-12-18T10:06:45.181Z,15.13
2022-12-18T10:09:21.261Z,14.70
2022-12-18T10:11:56.479Z,14.87
2022-12-18T10:14:32.386Z,15.00
2022-12-18T10:17:09.797Z,15.43
2022-12-18T10:19:49.938Z,15.23
2022-12-18T10:22:28.582Z,16.00
2022-12-18T10:25:05.003Z,15.93
2022-12-18T10:27:33.449Z,15.67
2022-12-18T10:30:03.324Z,16.07
2022-12-18T10:32:32.554Z,15.83
2022-12-18T10:35:01.210Z,16.97
2022-12-18T10:37:31.583Z,15.57
2022-12-18T10:40:15.463Z,16.33
2022-12-18T10:42:46.406Z,16.33
2022-12-18T10:45:18.435Z,15.57
2022-12-18T10:47:48.469Z,16.43
2022-12-18T10:50:26.269Z,16.87
2022-12-18T10:53:01.683Z,16.80
2022-12-18T10:55:35.778Z,17.87
2022-12-18T10:58:26.753Z,16.93
2022-12-18T11:01:10.395Z,19.23
2022-12-18T11:03:40.786Z,21.33
2022-12-18T11:06:11.512Z,18.33
2022-12-18T11:08:40.668Z,24.33
2022-12-18T11:11:26.640Z,20.97
2022-12-18T11:14:02.565Z,22.93
2022-12-18T11:16:34.975Z,26.10
2022-12-18T11:19:24.462Z,25.00
2022-12-18T11:21:54.160Z,26.33
2022-12-18T11:24:29.107Z,22.80
2022-12-18T11:27:00.008Z,23.03
2022-12-18T11:29:35.091Z,20.23
2022-12-18T11:32:31.670Z,19.00
2022-12-18T11:35:05.153Z,19.57
2022-12-18T11:37:34.732Z,18.93
2022-12-18T11:40:11.588Z,18.77
2022-12-18T11:42:47.397Z,18.23
2022-12-18T11:45:27.780Z,20.97
2022-12-18T11:48:00.830Z,21.80
2022-12-18T11:50:33.482Z,19.83
2022-12-18T11:53:06.221Z,17.97
2022-12-18T11:55:42.463Z,17.43
2022-12-18T11:58:31.339Z,18.00
2022-12-18T12:01:07.171Z,18.70
2022-12-18T12:03:56.133Z,18.97
2022-12-18T12:06:34.042Z,18.53
2022-12-18T12:09:11.949Z,18.17
2022-12-18T12:11:50.706Z,18.30
2022-12-18T12:14:36.771Z,18.73
2022-12-18T12:17:14.201Z,18.10
2022-12-18T12:19:50.240Z,19.97
2022-12-18T12:22:27.308Z,18.50
2022-12-18T12:25:06.875Z,18.17
2022-12-18T12:27:45.912Z,18.33
2022-12-18T12:30:22.665Z,19.07
2022-12-18T12:33:07.349Z,18.37
2022-12-18T12:35:46.239Z,18.80
2022-12-18T12:38:17.810Z,19.57
2022-12-18T12:40:57.080Z,19.43
2022-12-18T12:43:35.600Z,20.27
2022-12-18T12:46:08.143Z,18.40
2022-12-18T12:48:43.486Z,21.43
2022-12-18T12:51:17.573Z,19.73
2022-12-18T12:53:46.827Z,18.80
2022-12-18T12:56:18.364Z,20.67
2022-12-18T12:59:00.393Z,19.00
2022-12-18T13:01:38.956Z,19.70
2022-12-18T13:04:17.376Z,19.50
2022-12-18T13:06:52.238Z,19.87
2022-12-18T13:09:20.096Z,21.07
2022-12-18T13:12:07.907Z,18.87
2022-12-18T13:14:39.095Z,20.30
2022-12-18T13:17:33.882Z,19.87
2022-12-18T13:20:11.860Z,19.67
2022-12-18T13:22:44.812Z,19.47
2022-12-18T13:25:33.955Z,19.63
2022-12-18T13:28:05.561Z,19.53
2022-12-18T13:30:55.685Z,19.43
2022-12-18T13:34:25.622Z,20.23
2022-12-18T13:36:56.475Z,19.50
2022-12-18T13:39:35.478Z,18.70
2022-12-18T13:42:57.501Z,19.43
2022-12-18T13:45:47.551Z,19.67
2022-12-18T13:48:27.346Z,18.63
2022-12-18T13:51:00.418Z,18.57
2022-12-18T13:53:32.615Z,19.90
2022-12-18T13:56:01.065Z,19.57
2022-12-18T13:58:29.218Z,19.17
2022-12-18T14:00:57.634Z,19.00
2022-12-18T14:03:28.148Z,19.27
2022-12-18T14:06:02.041Z,18.03
2022-12-18T14:08:35.954Z,18.83
2022-12-18T14:11:08.851Z,19.07
2022-12-18T14:13:43.436Z,18.83
2022-12-18T14:16:17.361Z,18.50
2022-12-18T14:18:48.489Z,18.30
2022-12-18T14:21:24.497Z,19.20
2022-12-18T14:24:05.625Z,18.93
2022-12-18T14:26:34.237Z,18.63
2022-12-18T14:29:16.305Z,18.50
2022-12-18T14:31:44.832Z,18.47
2022-12-18T14:34:17.751Z,17.87
2022-12-18T14:36:56.823Z,18.70
2022-12-18T14:39:26.381Z,19.03
2022-12-18T14:41:55.275Z,18.13
2022-12-18T14:44:23.980Z,18.40
2022-12-18T14:46:52.921Z,19.63
2022-12-18T14:49:26.698Z,19.23
2022-12-18T14:51:57.378Z,18.50
2022-12-18T14:54:27.012Z,19.00
2022-12-18T14:57:01.820Z,18.60
2022-12-18T14:59:31.349Z,17.90
2022-12-18T15:02:06.877Z,17.77
2022-12-18T15:04:39.996Z,16.67
2022-12-18T15:07:17.223Z,18.77
2022-12-18T15:10:03.854Z,18.43
2022-12-18T15:12:37.223Z,17.43
2022-12-18T15:15:06.704Z,18.00
2022-12-18T15:17:34.668Z,19.40
2022-12-18T15:20:05.474Z,17.73
2022-12-18T15:22:37.733Z,18.13
2022-12-18T15:25:28.425Z,18.47
2022-12-18T15:27:56.348Z,19.60
2022-12-18T15:30:25.863Z,18.90
2022-12-18T15:32:55.473Z,18.73
2022-12-18T15:35:24.692Z,18.27
2022-12-18T15:37:54.424Z,18.23
2022-12-18T15:40:25.854Z,17.90
2022-12-18T15:43:13.551Z,19.47
2022-12-18T15:45:41.611Z,19.20
2022-12-18T15:48:21.579Z,18.23
2022-12-18T15:50:49.728Z,18.53
2022-12-18T15:53:19.604Z,18.50
2022-12-18T15:56:05.346Z,17.27
2022-12-18T15:58:33.758Z,18.10
2022-12-18T16:01:03.310Z,17.83
2022-12-18T16:03:32.311Z,17.33
2022-12-18T16:06:02.848Z,17.50
2022-12-18T16:08:33.812Z,17.63
2022-12-18T16:11:02.211Z,17.70
2022-12-18T16:13:30.100Z,17.07
2022-12-18T16:15:58.043Z,18.37
2022-12-18T16:18:26.113Z,17.40
2022-12-18T16:20:54.197Z,17.30
2022-12-18T16:23:22.108Z,17.80
2022-12-18T16:25:51.267Z,17.83
2022-12-18T16:28:31.544Z,17.83
2022-12-18T16:30:59.396Z,17.20
2022-12-18T16:33:27.280Z,17.80
2022-12-18T16:35:55.680Z,18.20
2022-12-18T16:38:23.668Z,17.27
2022-12-18T16:41:10.243Z,17.07
2022-12-18T16:43:38.394Z,17.97
2022-12-18T16:46:06.846Z,19.30
2022-12-18T16:48:35.801Z,18.87
2022-12-18T16:51:05.274Z,19.37
2022-12-18T16:53:34.175Z,18.57
2022-12-18T16:56:04.486Z,18.83
2022-12-18T16:58:32.913Z,17.70
2022-12-18T17:01:00.884Z,17.57
2022-12-18T17:03:28.879Z,16.77
2022-12-18T17:05:56.764Z,17.30
2022-12-18T17:08:24.626Z,16.97
2022-12-18T17:10:52.467Z,17.43
2022-12-18T17:13:25.757Z,16.47
2022-12-18T17:15:54.028Z,17.37
2022-12-18T17:18:22.372Z,17.57
2022-12-18T17:20:50.229Z,16.93
2022-12-18T17:23:18.097Z,18.57
2022-12-18T17:25:45.946Z,18.80
2022-12-18T17:28:13.846Z,18.57
2022-12-18T17:30:43.029Z,21.37
2022-12-18T17:33:10.854Z,19.00
2022-12-18T17:35:38.708Z,20.73
2022-12-18T17:38:06.555Z,19.00
2022-12-18T17:40:34.807Z,19.03
2022-12-18T17:43:02.824Z,18.33
2022-12-18T17:45:31.037Z,19.17
2022-12-18T17:48:01.305Z,18.43
2022-12-18T17:50:29.296Z,18.47
2022-12-18T17:52:57.716Z,19.03
2022-12-18T17:55:26.028Z,19.33
2022-12-18T17:57:53.870Z,18.97
2022-12-18T18:00:22.607Z,18.10
2022-12-18T18:02:50.720Z,17.83
2022-12-18T18:05:20.218Z,17.27
2022-12-18T18:07:48.436Z,17.73
2022-12-18T18:10:17.862Z,17.93
2022-12-18T18:13:03.400Z,18.80
2022-12-18T18:15:31.256Z,18.10
2022-12-18T18:17:59.095Z,16.97
2022-12-18T18:20:30.269Z,17.20
2022-12-18T18:22:58.170Z,17.57
2022-12-18T18:25:26.078Z,18.90
2022-12-18T18:27:54.527Z,19.17
2022-12-18T18:30:22.421Z,19.63
2022-12-18T18:32:50.275Z,19.93
2022-12-18T18:35:52.343Z,21.43
2022-12-18T18:38:10.045Z,20.63
2022-12-18T18:40:38.057Z,21.37
2022-12-18T18:43:05.985Z,21.23
2022-12-18T18:45:34.788Z,21.43
2022-12-18T18:48:02.651Z,18.03
2022-12-18T18:50:30.529Z,17.73
2022-12-18T18:52:58.410Z,17.90
2022-12-18T18:55:27.621Z,18.07
2022-12-18T18:57:55.539Z,18.17
2022-12-18T19:00:23.553Z,19.50
2022-12-18T19:02:53.987Z,19.10
2022-12-18T19:05:24.192Z,19.67
2022-12-18T19:07:52.033Z,22.77
2022-12-18T19:10:19.862Z,22.10
2022-12-18T19:13:17.972Z,25.60
2022-12-18T19:15:45.892Z,24.53
2022-12-18T19:18:14.139Z,23.47
2022-12-18T19:20:42.135Z,21.73
2022-12-18T19:23:10.191Z,21.40
2022-12-18T19:25:41.766Z,19.93
2022-12-18T19:28:21.293Z,19.00
2022-12-18T19:30:57.579Z,19.63
2022-12-18T19:33:43.678Z,19.10
2022-12-18T19:36:14.828Z,18.53
2022-12-18T19:38:45.232Z,20.63
2022-12-18T19:41:14.825Z,19.77
2022-12-18T19:43:44.553Z,19.03
2022-12-18T19:46:15.070Z,20.30
2022-12-18T19:48:44.266Z,21.93
2022-12-18T19:51:14.761Z,18.30
2022-12-18T19:53:42.624Z,18.70
2022-12-18T19:56:14.546Z,18.77
2022-12-18T19:58:44.253Z,18.93
2022-12-18T20:01:13.358Z,17.97
2022-12-18T20:03:46.611Z,18.17
2022-12-18T20:06:24.800Z,18.43
2022-12-18T20:08:53.183Z,26.63
2022-12-18T20:11:24.660Z,20.80
2022-12-18T20:13:53.892Z,20.43
2022-12-18T20:16:22.059Z,20.70
2022-12-18T20:18:50.131Z,20.47
2022-12-18T20:21:19.196Z,20.00
2022-12-18T20:23:47.330Z,20.20
2022-12-18T20:26:15.262Z,20.20
2022-12-18T20:28:43.265Z,21.03
2022-12-18T20:31:13.820Z,23.07
2022-12-18T20:33:43.322Z,22.23
2022-12-18T20:36:21.205Z,20.10
2022-12-18T20:38:50.852Z,19.23
2022-12-18T20:41:21.796Z,18.70
2022-12-18T20:43:49.845Z,17.67
2022-12-18T20:46:19.263Z,20.03
2022-12-18T20:48:48.166Z,19.77
2022-12-18T20:51:18.346Z,20.90
2022-12-18T20:53:46.876Z,22.83
2022-12-18T20:56:17.758Z,20.97
2022-12-18T20:58:49.828Z,20.60
2022-12-18T21:01:21.627Z,19.90
2022-12-18T21:03:50.535Z,19.37
2022-12-18T21:06:21.613Z,18.83
2022-12-18T21:08:50.026Z,19.50
2022-12-18T21:11:45.774Z,23.37
2022-12-18T21:14:15.366Z,20.07
2022-12-18T21:16:45.085Z,18.87
2022-12-18T21:19:13.920Z,18.87
2022-12-18T21:21:42.693Z,19.00
2022-12-18T21:24:11.000Z,19.57
2022-12-18T21:26:45.507Z,18.60
2022-12-18T21:29:16.749Z,18.57
2022-12-18T21:31:47.236Z,18.87
2022-12-18T21:34:18.748Z,19.13
2022-12-18T21:36:47.021Z,17.87
2022-12-18T21:39:15.903Z,17.77
2022-12-18T21:42:10.497Z,19.50
2022-12-18T21:44:41.944Z,18.60
2022-12-18T21:47:21.820Z,18.70
2022-12-18T21:49:52.458Z,19.37
2022-12-18T21:52:21.769Z,18.87
2022-12-18T21:55:04.779Z,18.83
2022-12-18T21:57:36.151Z,18.77
2022-12-18T22:00:05.413Z,18.27
2022-12-18T22:02:41.180Z,18.87
2022-12-18T22:05:10.027Z,17.90
2022-12-18T22:07:39.014Z,19.77
2022-12-18T22:10:07.739Z,18.60
2022-12-18T22:12:43.566Z,18.53
2022-12-18T22:15:20.005Z,18.67
2022-12-18T22:17:54.138Z,18.17
2022-12-18T22:20:28.043Z,19.43
2022-12-18T22:22:57.602Z,19.90
2022-12-18T22:25:25.509Z,18.93
2022-12-18T22:28:07.329Z,19.87
2022-12-18T22:30:35.216Z,19.80
2022-12-18T22:33:05.197Z,20.97
2022-12-18T22:35:33.146Z,18.40
2022-12-18T22:38:01.751Z,18.70
2022-12-18T22:40:30.547Z,20.87
2022-12-18T22:42:58.953Z,20.27
2022-12-18T22:45:27.784Z,20.27
2022-12-18T22:47:55.842Z,20.47
2022-12-18T22:50:25.056Z,19.67
2022-12-18T22:52:52.871Z,18.47
2022-12-18T22:55:20.927Z,17.43
2022-12-18T22:57:50.155Z,18.23
